createdAt,value
2023-02-11T00:00:55.456Z,84.93
2023-02-11T00:03:53.330Z,84.13
2023-02-11T00:06:50.155Z,69.55
2023-02-11T00:09:47.000Z,71.68
2023-02-11T00:12:47.085Z,75.30
2023-02-11T00:15:43.922Z,55.67
2023-02-11T00:18:40.765Z,67.47
2023-02-11T00:21:37.618Z,74.05
2023-02-11T00:24:35.940Z,67.20
2023-02-11T00:27:33.369Z,72.07
2023-02-11T00:30:30.246Z,79.32
2023-02-11T00:33:27.134Z,71.65
2023-02-11T00:36:27.687Z,74.47
2023-02-11T00:42:21.780Z,66.68
2023-02-11T00:45:20.924Z,78.80
2023-02-11T00:48:17.870Z,68.85
2023-02-11T00:51:15.088Z,68.85
2023-02-11T00:54:12.023Z,70.32
2023-02-11T00:57:08.888Z,77.47
2023-02-11T01:00:07.464Z,74.65
2023-02-11T01:03:04.370Z,73.05
2023-02-11T01:06:01.311Z,70.20
2023-02-11T01:08:58.189Z,67.75
2023-02-11T01:11:55.085Z,70.10
2023-02-11T01:14:52.162Z,67.07
2023-02-11T01:17:49.079Z,64.65
2023-02-11T01:20:45.929Z,65.30
2023-02-11T01:23:42.823Z,64.95
2023-02-11T01:26:39.671Z,66.65
2023-02-11T01:29:36.647Z,65.80
2023-02-11T01:32:33.939Z,59.08
2023-02-11T01:35:30.784Z,48.85
2023-02-11T01:38:27.647Z,53.63
2023-02-11T01:41:24.546Z,55.22
2023-02-11T01:44:35.506Z,47.25
2023-02-11T01:47:32.338Z,49.35
2023-02-11T01:50:29.364Z,52.78
2023-02-11T01:53:48.430Z,50.25
2023-02-11T01:57:10.305Z,50.22
2023-02-11T02:00:17.051Z,60.35
2023-02-11T02:03:20.217Z,58.40
2023-02-11T02:06:25.898Z,53.85
2023-02-11T02:09:28.385Z,51.85
2023-02-11T02:12:25.230Z,58.15
2023-02-11T02:15:35.096Z,58.40
2023-02-11T02:19:03.184Z,60.50
2023-02-11T02:23:09.585Z,57.97
2023-02-11T02:26:37.306Z,62.75
2023-02-11T02:30:20.036Z,62.28
2023-02-11T02:33:37.801Z,55.05
2023-02-11T02:36:50.412Z,53.85
2023-02-11T02:39:50.344Z,55.28
2023-02-11T02:42:49.528Z,61.35
2023-02-11T02:45:46.360Z,50.40
2023-02-11T02:48:44.379Z,57.10
2023-02-11T02:52:15.285Z,47.95
2023-02-11T02:55:38.606Z,52.25
2023-02-11T02:59:20.810Z,55.30
2023-02-11T03:02:40.281Z,58.03
2023-02-11T03:05:53.500Z,57.67
2023-02-11T03:09:33.602Z,54.15
2023-02-11T03:12:33.190Z,63.07
2023-02-11T03:15:37.212Z,53.28
2023-02-11T03:18:38.077Z,57.38
2023-02-11T03:21:40.114Z,56.20
2023-02-11T03:24:40.052Z,49.45
2023-02-11T03:27:52.631Z,52.65
2023-02-11T03:31:02.993Z,55.85
2023-02-11T03:34:16.320Z,52.97
2023-02-11T03:37:29.800Z,52.78
2023-02-11T03:40:32.576Z,57.70
2023-02-11T03:43:37.034Z,53.80
2023-02-11T03:46:41.955Z,52.90
2023-02-11T03:49:41.683Z,48.03
2023-02-11T03:52:39.277Z,55.73
2023-02-11T03:55:39.963Z,47.70
2023-02-11T03:58:36.923Z,45.38
2023-02-11T04:01:33.869Z,52.97
2023-02-11T04:04:30.767Z,45.80
2023-02-11T04:07:28.268Z,54.80
2023-02-11T04:10:25.510Z,55.40
2023-02-11T04:13:22.515Z,56.80
2023-02-11T04:16:19.481Z,58.65
2023-02-11T04:19:16.326Z,55.50
2023-02-11T04:22:13.210Z,56.30
2023-02-11T04:25:10.983Z,55.67
2023-02-11T04:28:07.829Z,55.60
2023-02-11T04:31:04.906Z,62.72
2023-02-11T04:34:01.851Z,51.53
2023-02-11T04:36:58.696Z,58.53
2023-02-11T04:39:55.564Z,51.67
2023-02-11T04:42:52.608Z,57.15
2023-02-11T04:45:49.830Z,55.00
2023-02-11T04:48:46.921Z,56.00
2023-02-11T04:51:47.590Z,52.50
2023-02-11T04:54:45.787Z,48.72
2023-02-11T04:57:42.630Z,59.60
2023-02-11T05:00:39.458Z,60.85
2023-02-11T05:03:37.195Z,52.53
2023-02-11T05:06:34.081Z,54.70
2023-02-11T05:09:30.928Z,60.13
2023-02-11T05:12:27.776Z,57.03
2023-02-11T05:15:24.669Z,62.15
2023-02-11T05:18:21.862Z,53.28
2023-02-11T05:21:19.820Z,58.10
2023-02-11T05:24:16.634Z,51.20
2023-02-11T05:27:13.538Z,43.92
2023-02-11T05:30:11.673Z,63.03
2023-02-11T05:33:08.533Z,51.30
2023-02-11T05:36:10.358Z,55.92
2023-02-11T05:39:07.172Z,49.63
2023-02-11T05:42:04.898Z,70.13
2023-02-11T05:45:02.093Z,60.53
2023-02-11T05:47:58.937Z,55.65
2023-02-11T05:50:55.770Z,87.50
2023-02-11T05:53:53.679Z,67.10
2023-02-11T05:56:50.607Z,56.85
2023-02-11T05:59:48.094Z,53.33
2023-02-11T06:02:45.108Z,60.63
2023-02-11T06:05:44.320Z,61.92
2023-02-11T06:08:41.662Z,50.97
2023-02-11T06:11:38.798Z,58.15
2023-02-11T06:14:35.620Z,50.70
2023-02-11T06:17:33.709Z,60.20
2023-02-11T06:20:30.557Z,63.03
2023-02-11T06:23:30.001Z,62.85
2023-02-11T06:26:27.202Z,61.10
2023-02-11T06:29:24.018Z,63.40
2023-02-11T06:32:42.166Z,63.17
2023-02-11T06:35:40.900Z,57.63
2023-02-11T06:38:37.943Z,49.83
2023-02-11T06:41:34.817Z,68.28
2023-02-11T06:44:32.074Z,77.25
2023-02-11T06:47:28.902Z,84.53
2023-02-11T06:50:25.736Z,74.75
2023-02-11T06:53:22.608Z,68.28
2023-02-11T06:56:22.675Z,87.25
2023-02-11T06:59:20.697Z,77.32
2023-02-11T07:02:20.413Z,59.13
2023-02-11T07:05:20.178Z,67.07
2023-02-11T07:08:17.026Z,68.85
2023-02-11T07:11:24.183Z,69.47
2023-02-11T07:14:21.086Z,62.65
2023-02-11T07:17:17.981Z,73.20
2023-02-11T07:20:15.012Z,74.38
2023-02-11T07:23:11.843Z,70.88
2023-02-11T07:26:12.242Z,71.03
2023-02-11T07:29:09.082Z,70.82
2023-02-11T07:32:06.807Z,83.55
2023-02-11T07:35:04.162Z,73.47
2023-02-11T07:38:01.042Z,71.80
2023-02-11T07:41:02.258Z,75.43
2023-02-11T07:43:59.232Z,64.15
2023-02-11T07:46:56.738Z,64.60
2023-02-11T07:49:56.479Z,66.03
2023-02-11T07:52:53.834Z,59.53
2023-02-11T07:55:51.812Z,60.92
2023-02-11T07:58:49.297Z,56.58
2023-02-11T08:01:46.329Z,73.35
2023-02-11T08:04:45.454Z,64.13
2023-02-11T08:07:42.429Z,54.28
2023-02-11T08:10:39.314Z,59.60
2023-02-11T08:13:36.979Z,55.80
2023-02-11T08:16:36.471Z,58.22
2023-02-11T08:19:35.233Z,52.85
2023-02-11T08:22:34.018Z,52.83
2023-02-11T08:25:30.864Z,46.67
2023-02-11T08:28:27.969Z,52.60
2023-02-11T08:31:34.788Z,55.33
2023-02-11T08:34:31.693Z,85.38
2023-02-11T08:37:28.906Z,89.10
2023-02-11T08:40:26.672Z,77.13
2023-02-11T08:43:23.614Z,73.60
2023-02-11T08:46:21.246Z,66.78
2023-02-11T08:49:18.384Z,60.20
2023-02-11T08:52:15.236Z,69.40
2023-02-11T08:55:12.063Z,69.90
2023-02-11T08:58:09.293Z,63.83
2023-02-11T09:01:31.115Z,69.80
2023-02-11T09:04:28.002Z,70.47
2023-02-11T09:07:24.836Z,79.65
2023-02-11T09:10:21.663Z,64.65
2023-02-11T09:13:18.661Z,66.32
2023-02-11T09:16:22.500Z,66.10
2023-02-11T09:19:19.904Z,70.35
2023-02-11T09:22:16.732Z,65.60
2023-02-11T09:25:13.619Z,69.97
2023-02-11T09:28:12.780Z,67.60
2023-02-11T09:31:15.138Z,66.60
2023-02-11T09:34:13.090Z,66.28
2023-02-11T09:37:11.092Z,72.60
2023-02-11T09:40:09.031Z,74.30
2023-02-11T09:43:22.077Z,75.88
2023-02-11T09:46:20.323Z,71.45
2023-02-11T09:49:26.371Z,69.97
2023-02-11T09:52:50.074Z,69.75
2023-02-11T09:55:55.607Z,81.78
2023-02-11T09:58:52.458Z,71.55
2023-02-11T10:01:58.817Z,67.32
2023-02-11T10:05:31.285Z,68.82
2023-02-11T10:09:12.747Z,66.00
2023-02-11T10:12:18.230Z,70.97
2023-02-11T10:15:27.424Z,66.38
2023-02-11T10:18:56.835Z,81.18
2023-02-11T10:22:03.515Z,67.75
2023-02-11T10:25:06.552Z,68.95
2023-02-11T10:28:20.941Z,74.55
2023-02-11T10:31:41.120Z,70.53
2023-02-11T10:34:41.823Z,73.53
2023-02-11T10:40:35.439Z,77.07
2023-02-11T10:43:34.571Z,64.53
2023-02-11T10:46:36.938Z,76.93
2023-02-11T10:49:39.931Z,79.10
2023-02-11T10:52:36.775Z,80.60
2023-02-11T10:55:33.688Z,87.18
2023-02-11T10:58:56.068Z,97.15
2023-02-11T11:02:04.713Z,67.70
2023-02-11T11:05:17.200Z,66.18
2023-02-11T11:08:15.833Z,58.72
2023-02-11T11:11:18.801Z,60.08
2023-02-11T11:14:20.711Z,62.53
2023-02-11T11:17:19.617Z,64.72
2023-02-11T11:20:27.529Z,56.88
2023-02-11T11:23:25.374Z,57.17
2023-02-11T11:26:23.687Z,62.42
2023-02-11T11:29:48.214Z,66.15
2023-02-11T11:32:45.715Z,57.83
2023-02-11T11:35:42.762Z,59.90
2023-02-11T11:38:58.257Z,60.88
2023-02-11T11:41:59.622Z,60.80
2023-02-11T11:45:30.278Z,70.88
2023-02-11T11:48:42.196Z,66.72
2023-02-11T11:51:45.573Z,67.50
2023-02-11T11:54:53.574Z,66.45
2023-02-11T11:57:51.118Z,79.22
2023-02-11T12:01:26.221Z,71.03
2023-02-11T12:04:50.775Z,76.97
2023-02-11T12:07:50.900Z,63.67
2023-02-11T12:11:13.971Z,67.70
2023-02-11T12:14:35.591Z,76.93
2023-02-11T12:17:52.152Z,98.65
2023-02-11T12:21:22.430Z,121.10
2023-02-11T12:25:02.933Z,115.25
2023-02-11T12:28:58.631Z,102.40
2023-02-11T12:32:36.401Z,77.55
2023-02-11T12:36:15.102Z,96.70
2023-02-11T12:39:50.382Z,97.63
2023-02-11T12:43:21.645Z,107.80
2023-02-11T12:46:48.925Z,75.80
2023-02-11T12:50:22.834Z,98.57
2023-02-11T12:53:56.589Z,80.88
2023-02-11T12:56:55.806Z,74.32
2023-02-11T13:00:22.287Z,106.65
2023-02-11T13:03:28.644Z,73.55
2023-02-11T13:06:52.334Z,93.53
2023-02-11T13:10:02.153Z,113.50
2023-02-11T13:13:19.031Z,63.87
2023-02-11T13:16:36.319Z,61.60
2023-02-11T13:19:42.451Z,67.13
2023-02-11T13:22:48.938Z,66.90
2023-02-11T13:26:04.278Z,66.53
2023-02-11T13:29:36.290Z,64.32
2023-02-11T13:33:31.798Z,69.35
2023-02-11T13:36:32.789Z,88.18
2023-02-11T13:39:29.993Z,75.03
2023-02-11T13:42:28.483Z,72.43
2023-02-11T13:45:48.905Z,71.22
2023-02-11T13:48:52.991Z,74.30
2023-02-11T13:51:51.291Z,82.35
2023-02-11T13:54:51.700Z,81.38
2023-02-11T13:58:08.374Z,79.32
2023-02-11T14:01:06.099Z,66.53
2023-02-11T14:04:42.468Z,76.72
2023-02-11T14:08:12.240Z,66.55
2023-02-11T14:11:32.646Z,72.95
2023-02-11T14:14:33.848Z,77.65
2023-02-11T14:17:34.134Z,71.00
2023-02-11T14:20:39.565Z,65.47
2023-02-11T14:23:37.458Z,69.35
2023-02-11T14:26:54.736Z,62.33
2023-02-11T14:30:09.801Z,64.28
2023-02-11T14:33:45.841Z,67.70
2023-02-11T14:36:58.804Z,68.78
2023-02-11T14:40:30.830Z,74.45
2023-02-11T14:43:46.858Z,71.55
2023-02-11T14:46:50.033Z,73.63
2023-02-11T14:49:48.313Z,81.03
2023-02-11T14:52:45.627Z,74.45
2023-02-11T14:55:45.658Z,77.63
2023-02-11T14:58:48.286Z,80.28
2023-02-11T15:01:51.795Z,75.10
2023-02-11T15:04:48.738Z,77.32
2023-02-11T15:08:07.383Z,74.57
2023-02-11T15:11:13.138Z,86.35
2023-02-11T15:14:32.558Z,78.22
2023-02-11T15:17:32.072Z,76.07
2023-02-11T15:20:33.202Z,74.10
2023-02-11T15:23:31.267Z,72.40
2023-02-11T15:26:29.734Z,75.88
2023-02-11T15:29:40.763Z,79.35
2023-02-11T15:32:43.435Z,83.35
2023-02-11T15:35:41.055Z,80.18
2023-02-11T15:38:37.963Z,86.85
2023-02-11T15:41:37.746Z,74.88
2023-02-11T15:44:34.556Z,84.43
2023-02-11T15:47:31.408Z,89.43
2023-02-11T15:50:33.039Z,76.78
2023-02-11T15:53:42.378Z,84.20
2023-02-11T15:56:43.347Z,92.25
2023-02-11T15:59:46.484Z,80.07
2023-02-11T16:02:46.614Z,73.97
2023-02-11T16:05:43.403Z,80.18
2023-02-11T16:08:42.959Z,91.95
2023-02-11T16:11:48.652Z,84.82
2023-02-11T16:14:45.539Z,81.28
2023-02-11T16:17:44.598Z,99.10
2023-02-11T16:20:46.472Z,78.03
2023-02-11T16:23:50.043Z,77.28
2023-02-11T16:26:54.333Z,79.72
2023-02-11T16:29:52.271Z,75.55
2023-02-11T16:32:49.076Z,73.60
2023-02-11T16:35:47.618Z,80.95
2023-02-11T16:38:44.481Z,89.47
2023-02-11T16:41:41.397Z,81.90
2023-02-11T16:44:38.459Z,104.55
2023-02-11T16:47:36.162Z,91.10
2023-02-11T16:50:32.980Z,76.78
2023-02-11T16:53:29.919Z,86.68
2023-02-11T16:56:26.827Z,97.90
2023-02-11T16:59:23.985Z,93.72
2023-02-11T17:02:30.486Z,80.20
2023-02-11T17:05:27.468Z,82.18
2023-02-11T17:08:24.424Z,109.50
2023-02-11T17:11:21.229Z,117.53
2023-02-11T17:14:19.881Z,161.10
2023-02-11T17:17:17.517Z,146.57
2023-02-11T17:20:15.329Z,78.97
2023-02-11T17:23:12.150Z,89.55
2023-02-11T17:26:09.758Z,112.05
2023-02-11T17:29:09.064Z,102.05
2023-02-11T17:32:06.182Z,125.65
2023-02-11T17:35:05.826Z,92.35
2023-02-11T17:38:02.825Z,97.57
2023-02-11T17:41:02.129Z,93.97
2023-02-11T17:44:00.908Z,82.88
2023-02-11T17:46:57.826Z,90.57
2023-02-11T17:49:54.700Z,132.32
2023-02-11T17:52:51.662Z,100.72
2023-02-11T17:55:48.757Z,110.63
2023-02-11T17:58:46.027Z,104.47
2023-02-11T18:01:43.791Z,87.70
2023-02-11T18:04:40.774Z,103.45
2023-02-11T18:07:37.712Z,79.68
2023-02-11T18:10:34.740Z,72.53
2023-02-11T18:13:31.573Z,73.93
2023-02-11T18:16:29.985Z,78.53
2023-02-11T18:19:30.470Z,91.97
2023-02-11T18:22:27.385Z,110.95
2023-02-11T18:25:24.488Z,85.88
2023-02-11T18:28:21.480Z,99.88
2023-02-11T18:31:19.136Z,99.63
2023-02-11T18:34:16.954Z,118.07
2023-02-11T18:37:14.306Z,129.98
2023-02-11T18:40:12.786Z,86.93
2023-02-11T18:43:09.631Z,96.00
2023-02-11T18:46:16.055Z,106.88
2023-02-11T18:49:13.234Z,114.75
2023-02-11T18:52:10.056Z,101.55
2023-02-11T18:55:07.728Z,93.95
2023-02-11T18:58:04.560Z,100.75
2023-02-11T19:01:01.445Z,128.70
2023-02-11T19:04:02.846Z,113.70
2023-02-11T19:07:03.127Z,117.68
2023-02-11T19:09:59.978Z,138.90
2023-02-11T19:12:58.889Z,145.52
2023-02-11T19:15:55.774Z,130.55
2023-02-11T19:18:52.826Z,136.98
2023-02-11T19:21:50.183Z,153.25
2023-02-11T19:24:47.051Z,247.30
2023-02-11T19:27:43.935Z,220.27
2023-02-11T19:30:41.303Z,195.55
2023-02-11T19:33:38.156Z,240.60
2023-02-11T19:36:35.157Z,231.55
2023-02-11T19:39:32.211Z,174.45
2023-02-11T19:42:29.026Z,197.93
2023-02-11T19:45:26.938Z,248.40
2023-02-11T19:48:25.362Z,226.23
2023-02-11T19:51:22.652Z,202.77
2023-02-11T19:54:20.342Z,194.70
2023-02-11T19:57:17.402Z,207.82
2023-02-11T20:00:14.894Z,152.80
2023-02-11T20:03:11.827Z,191.25
2023-02-11T20:06:14.402Z,143.60
2023-02-11T20:09:14.455Z,242.73
2023-02-11T20:12:12.060Z,172.98
2023-02-11T20:15:13.021Z,162.23
2023-02-11T20:18:09.933Z,150.57
2023-02-11T20:21:25.585Z,155.20
2023-02-11T20:24:23.737Z,210.45
2023-02-11T20:27:20.611Z,168.25
2023-02-11T20:30:17.510Z,141.80
2023-02-11T20:33:14.746Z,137.65
2023-02-11T20:36:17.224Z,134.77
2023-02-11T20:39:17.178Z,152.75
2023-02-11T20:42:14.998Z,152.93
2023-02-11T20:45:11.894Z,131.35
2023-02-11T20:48:08.735Z,150.68
2023-02-11T20:51:16.505Z,165.52
2023-02-11T20:54:17.141Z,147.48
2023-02-11T21:00:13.124Z,119.63
2023-02-11T21:03:10.300Z,97.88
2023-02-11T21:06:08.112Z,95.07
2023-02-11T21:09:07.406Z,133.48
2023-02-11T21:12:05.368Z,141.05
2023-02-11T21:15:05.434Z,125.88
2023-02-11T21:18:02.242Z,132.75
2023-02-11T21:21:00.021Z,167.90
2023-02-11T21:23:58.500Z,129.65
2023-02-11T21:26:55.341Z,137.65
2023-02-11T21:29:54.507Z,111.07
2023-02-11T21:32:51.629Z,112.15
2023-02-11T21:35:49.080Z,122.57
2023-02-11T21:38:46.127Z,134.18
2023-02-11T21:41:43.035Z,149.77
2023-02-11T21:44:39.849Z,137.95
2023-02-11T21:47:36.651Z,158.68
2023-02-11T21:50:33.482Z,193.75
2023-02-11T21:53:30.286Z,232.90
2023-02-11T21:56:29.704Z,123.65
2023-02-11T21:59:26.557Z,118.43
2023-02-11T22:02:23.450Z,121.47
2023-02-11T22:05:20.877Z,127.53
2023-02-11T22:08:20.188Z,104.40
2023-02-11T22:11:17.378Z,99.75
2023-02-11T22:14:14.269Z,96.28
2023-02-11T22:17:11.173Z,120.63
2023-02-11T22:20:10.081Z,111.63
2023-02-11T22:23:06.887Z,120.90
2023-02-11T22:26:11.528Z,170.60
2023-02-11T22:29:08.358Z,145.20
2023-02-11T22:32:05.597Z,116.43
2023-02-11T22:35:02.595Z,109.47
2023-02-11T22:37:59.393Z,110.72
2023-02-11T22:40:56.429Z,98.43
2023-02-11T22:43:53.309Z,132.35
2023-02-11T22:46:51.876Z,104.00
2023-02-11T22:49:48.790Z,109.40
2023-02-11T22:52:45.588Z,113.03
2023-02-11T22:55:42.402Z,192.15
2023-02-11T22:58:39.348Z,133.13
2023-02-11T23:01:37.193Z,121.03
2023-02-11T23:04:34.144Z,138.50
2023-02-11T23:07:30.976Z,125.90
2023-02-11T23:10:27.851Z,133.43
2023-02-11T23:13:24.658Z,144.43
2023-02-11T23:16:26.226Z,190.38
2023-02-11T23:19:23.076Z,139.73
2023-02-11T23:22:19.879Z,133.23
2023-02-11T23:25:16.826Z,120.85
2023-02-11T23:28:13.669Z,128.73
2023-02-11T23:31:27.307Z,137.60
2023-02-11T23:34:25.504Z,145.07
2023-02-11T23:37:22.408Z,155.93
2023-02-11T23:40:21.227Z,142.98
2023-02-11T23:43:18.093Z,172.77
2023-02-11T23:46:14.940Z,185.70
2023-02-11T23:49:11.775Z,165.07
2023-02-11T23:52:08.600Z,134.10
2023-02-11T23:55:06.045Z,130.95
2023-02-11T23:58:02.849Z,129.55
